createdAt,value
2022-11-08T00:02:07.991Z,13.50
2022-11-08T00:04:35.426Z,14.70
2022-11-08T00:07:20.494Z,13.17
2022-11-08T00:10:05.551Z,12.83
2022-11-08T00:12:52.003Z,13.67
2022-11-08T00:15:19.583Z,13.13
2022-11-08T00:17:46.956Z,14.07
2022-11-08T00:20:14.373Z,12.87
2022-11-08T00:22:42.310Z,14.03
2022-11-08T00:25:10.939Z,12.80
2022-11-08T00:27:39.613Z,12.33
2022-11-08T00:30:07.850Z,12.67
2022-11-08T00:32:35.363Z,13.33
2022-11-08T00:35:02.730Z,12.70
2022-11-08T00:37:30.050Z,13.43
2022-11-08T00:39:57.386Z,12.70
2022-11-08T00:42:24.847Z,12.63
2022-11-08T00:44:53.739Z,13.83
2022-11-08T00:47:21.104Z,12.80
2022-11-08T00:49:48.620Z,12.70
2022-11-08T00:52:15.972Z,12.90
2022-11-08T00:54:43.303Z,12.60
2022-11-08T00:57:10.656Z,13.20
2022-11-08T00:59:38.035Z,13.17
2022-11-08T01:02:06.734Z,12.53
2022-11-08T01:04:34.177Z,13.37
2022-11-08T01:07:01.651Z,12.63
2022-11-08T01:09:28.963Z,12.40
2022-11-08T01:11:56.291Z,12.93
2022-11-08T01:14:23.613Z,12.03
2022-11-08T01:16:52.189Z,12.27
2022-11-08T01:19:20.813Z,12.00
2022-11-08T01:21:48.157Z,11.90
2022-11-08T01:24:15.478Z,12.40
2022-11-08T01:26:42.779Z,12.73
2022-11-08T01:29:10.095Z,12.07
2022-11-08T01:31:37.455Z,12.57
2022-11-08T01:34:06.855Z,12.50
2022-11-08T01:36:35.571Z,12.93
2022-11-08T01:39:02.912Z,12.77
2022-11-08T01:41:30.422Z,13.03
2022-11-08T01:43:58.435Z,12.63
2022-11-08T01:46:35.212Z,12.10
2022-11-08T01:49:37.342Z,12.57
2022-11-08T01:52:14.333Z,12.13
2022-11-08T01:54:50.279Z,13.60
2022-11-08T01:57:24.698Z,13.53
2022-11-08T01:59:54.440Z,12.53
2022-11-08T02:02:22.079Z,11.63
2022-11-08T02:04:49.961Z,11.87
2022-11-08T02:07:25.736Z,12.20
2022-11-08T02:09:53.068Z,11.90
2022-11-08T02:12:21.959Z,12.00
2022-11-08T02:14:49.292Z,11.77
2022-11-08T02:17:16.780Z,12.10
2022-11-08T02:19:46.737Z,11.80
2022-11-08T02:22:22.256Z,12.43
2022-11-08T02:24:50.983Z,13.27
2022-11-08T02:27:18.293Z,12.70
2022-11-08T02:29:45.624Z,11.90
2022-11-08T02:32:13.033Z,12.83
2022-11-08T02:34:44.600Z,12.67
2022-11-08T02:37:13.192Z,12.50
2022-11-08T02:39:40.557Z,12.80
2022-11-08T02:42:13.724Z,12.43
2022-11-08T02:44:41.076Z,12.00
2022-11-08T02:47:08.472Z,11.70
2022-11-08T02:49:35.794Z,11.90
2022-11-08T02:52:03.207Z,13.77
2022-11-08T02:54:30.785Z,13.00
2022-11-08T02:56:58.112Z,13.43
2022-11-08T02:59:26.788Z,13.40
2022-11-08T03:01:54.296Z,13.90
2022-11-08T03:04:21.796Z,13.87
2022-11-08T03:06:49.141Z,13.17
2022-11-08T03:09:16.495Z,13.90
2022-11-08T03:11:43.883Z,14.87
2022-11-08T03:14:11.260Z,14.03
2022-11-08T03:16:39.959Z,14.70
2022-11-08T03:19:07.317Z,14.30
2022-11-08T03:21:35.863Z,14.57
2022-11-08T03:24:03.187Z,14.73
2022-11-08T03:26:30.523Z,14.47
2022-11-08T03:28:57.856Z,15.43
2022-11-08T03:31:25.316Z,14.67
2022-11-08T03:33:54.020Z,14.50
2022-11-08T03:36:21.349Z,14.67
2022-11-08T03:38:48.680Z,14.00
2022-11-08T03:41:16.011Z,14.87
2022-11-08T03:43:43.387Z,15.20
2022-11-08T03:46:10.768Z,14.03
2022-11-08T03:48:38.088Z,14.27
2022-11-08T03:51:06.887Z,14.23
2022-11-08T03:53:34.257Z,14.47
2022-11-08T03:56:01.856Z,14.63
2022-11-08T03:58:29.327Z,14.93
2022-11-08T04:00:58.087Z,15.50
2022-11-08T04:03:25.740Z,15.93
2022-11-08T04:05:53.081Z,15.30
2022-11-08T04:08:21.757Z,15.53
2022-11-08T04:10:49.111Z,16.33
2022-11-08T04:13:34.091Z,15.40
2022-11-08T04:16:01.480Z,16.63
2022-11-08T04:18:46.478Z,16.10
2022-11-08T04:21:20.160Z,16.37
2022-11-08T04:23:49.494Z,16.97
2022-11-08T04:26:17.074Z,16.10
2022-11-08T04:28:44.447Z,18.33
2022-11-08T04:31:13.888Z,15.53
2022-11-08T04:33:41.322Z,15.23
2022-11-08T04:36:10.397Z,15.67
2022-11-08T04:38:37.791Z,15.07
2022-11-08T04:41:08.036Z,14.93
2022-11-08T04:43:35.715Z,15.60
2022-11-08T04:46:05.257Z,14.70
2022-11-08T04:48:33.063Z,15.63
2022-11-08T04:51:05.027Z,14.23
2022-11-08T04:53:32.438Z,13.77
2022-11-08T04:56:03.887Z,13.97
2022-11-08T04:58:35.949Z,13.90
2022-11-08T05:01:04.116Z,14.57
2022-11-08T05:03:31.697Z,13.57
2022-11-08T05:06:02.092Z,14.00
2022-11-08T05:08:29.614Z,13.90
2022-11-08T05:11:01.544Z,12.87
2022-11-08T05:13:29.052Z,13.13
2022-11-08T05:16:00.647Z,13.10
2022-11-08T05:18:28.057Z,14.60
2022-11-08T05:21:13.733Z,13.40
2022-11-08T05:23:41.193Z,13.70
2022-11-08T05:26:09.111Z,13.53
2022-11-08T05:28:36.637Z,13.67
2022-11-08T05:31:05.531Z,13.77
2022-11-08T05:33:33.324Z,14.20
2022-11-08T05:36:05.676Z,14.23
2022-11-08T05:38:33.501Z,13.83
2022-11-08T05:41:03.355Z,13.87
2022-11-08T05:43:31.242Z,13.17
2022-11-08T05:45:58.659Z,13.50
2022-11-08T05:48:27.332Z,13.87
2022-11-08T05:50:55.052Z,14.10
2022-11-08T05:53:22.444Z,14.53
2022-11-08T05:55:50.157Z,13.70
2022-11-08T05:58:17.592Z,13.40
2022-11-08T06:00:44.909Z,14.53
2022-11-08T06:03:12.321Z,13.27
2022-11-08T06:05:41.031Z,14.00
2022-11-08T06:08:08.611Z,13.70
2022-11-08T06:10:35.968Z,13.90
2022-11-08T06:13:03.331Z,13.57
2022-11-08T06:15:30.705Z,13.73
2022-11-08T06:18:02.916Z,16.43
2022-11-08T06:20:30.607Z,13.33
2022-11-08T06:22:59.276Z,13.63
2022-11-08T06:25:26.771Z,13.33
2022-11-08T06:27:54.111Z,12.90
2022-11-08T06:30:21.471Z,13.00
2022-11-08T06:32:48.817Z,13.20
2022-11-08T06:35:16.183Z,12.80
2022-11-08T06:37:44.115Z,12.10
2022-11-08T06:40:13.201Z,12.97
2022-11-08T06:42:40.596Z,12.93
2022-11-08T06:45:08.606Z,13.23
2022-11-08T06:47:36.028Z,12.57
2022-11-08T06:50:03.665Z,12.63
2022-11-08T06:52:30.984Z,12.40
2022-11-08T06:54:58.408Z,12.70
2022-11-08T06:57:27.087Z,12.53
2022-11-08T06:59:54.417Z,12.67
2022-11-08T07:02:21.853Z,12.67
2022-11-08T07:04:49.305Z,14.17
2022-11-08T07:07:16.746Z,12.90
2022-11-08T07:09:44.522Z,12.50
2022-11-08T07:12:11.995Z,13.10
2022-11-08T07:14:40.660Z,13.27
2022-11-08T07:17:08.040Z,13.97
2022-11-08T07:19:35.799Z,14.03
2022-11-08T07:22:03.176Z,13.97
2022-11-08T07:24:30.556Z,15.03
2022-11-08T07:26:57.892Z,16.03
2022-11-08T07:29:25.280Z,14.30
2022-11-08T07:31:53.912Z,15.77
2022-11-08T07:34:21.548Z,15.13
2022-11-08T07:36:48.879Z,16.00
2022-11-08T07:39:16.259Z,15.70
2022-11-08T07:41:43.571Z,16.63
2022-11-08T07:44:10.894Z,16.17
2022-11-08T07:46:38.233Z,16.33
2022-11-08T07:49:06.929Z,16.47
2022-11-08T07:51:34.303Z,16.43
2022-11-08T07:54:03.236Z,17.00
2022-11-08T07:56:30.990Z,17.10
2022-11-08T07:58:58.359Z,17.50
2022-11-08T08:01:25.866Z,17.70
2022-11-08T08:03:53.208Z,17.43
2022-11-08T08:06:23.228Z,17.80
2022-11-08T08:08:50.980Z,17.93
2022-11-08T08:11:18.344Z,17.67
2022-11-08T08:13:45.661Z,18.20
2022-11-08T08:16:13.015Z,18.03
2022-11-08T08:18:40.427Z,18.03
2022-11-08T08:21:07.798Z,18.30
2022-11-08T08:23:36.428Z,18.30
2022-11-08T08:26:03.975Z,17.80
2022-11-08T08:28:31.307Z,18.10
2022-11-08T08:30:58.771Z,18.77
2022-11-08T08:33:34.293Z,18.43
2022-11-08T08:36:02.209Z,18.43
2022-11-08T08:38:30.906Z,18.63
2022-11-08T08:40:59.930Z,18.90
2022-11-08T08:43:28.441Z,18.27
2022-11-08T08:45:55.980Z,18.90
2022-11-08T08:48:23.305Z,18.63
2022-11-08T08:50:50.850Z,18.90
2022-11-08T08:53:18.549Z,18.90
2022-11-08T08:55:47.867Z,19.27
2022-11-08T08:58:16.592Z,19.07
2022-11-08T09:03:31.750Z,19.13
2022-11-08T09:05:59.603Z,18.53
2022-11-08T09:08:27.243Z,18.73
2022-11-08T09:10:55.511Z,18.87
2022-11-08T09:13:26.044Z,19.40
2022-11-08T09:15:53.753Z,18.80
2022-11-08T09:18:21.633Z,19.10
2022-11-08T09:20:49.159Z,19.60
2022-11-08T09:23:17.838Z,18.67
2022-11-08T09:25:45.769Z,19.50
2022-11-08T09:28:13.152Z,18.80
2022-11-08T09:30:41.999Z,19.70
2022-11-08T09:33:09.659Z,20.17
2022-11-08T09:35:37.061Z,19.40
2022-11-08T09:38:04.456Z,19.80
2022-11-08T09:40:34.341Z,19.53
2022-11-08T09:43:10.055Z,19.30
2022-11-08T09:45:38.720Z,19.83
2022-11-08T09:48:08.474Z,19.97
2022-11-08T09:50:39.739Z,20.13
2022-11-08T09:53:15.785Z,19.80
2022-11-08T09:55:45.439Z,19.00
2022-11-08T09:58:20.215Z,19.67
2022-11-08T10:00:50.709Z,19.73
2022-11-08T10:03:21.228Z,20.00
2022-11-08T10:05:56.188Z,19.43
2022-11-08T10:08:29.438Z,19.67
2022-11-08T10:11:07.348Z,20.13
2022-11-08T10:13:39.888Z,19.90
2022-11-08T10:16:11.907Z,19.50
2022-11-08T10:18:51.650Z,19.63
2022-11-08T10:21:28.732Z,20.20
2022-11-08T10:24:00.680Z,19.90
2022-11-08T10:26:31.512Z,20.43
2022-11-08T10:29:02.941Z,20.00
2022-11-08T10:31:32.941Z,19.73
2022-11-08T10:34:04.556Z,20.00
2022-11-08T10:36:35.775Z,20.47
2022-11-08T10:39:05.766Z,20.30
2022-11-08T10:41:40.920Z,20.10
2022-11-08T10:44:13.763Z,19.80
2022-11-08T10:46:43.641Z,20.00
2022-11-08T10:49:18.416Z,19.90
2022-11-08T10:51:46.644Z,19.80
2022-11-08T10:54:42.340Z,19.87
2022-11-08T10:57:10.653Z,19.90
2022-11-08T10:59:38.235Z,19.90
2022-11-08T11:02:18.102Z,19.90
2022-11-08T11:04:46.929Z,21.30
2022-11-08T11:07:36.125Z,20.40
2022-11-08T11:10:23.519Z,20.03
2022-11-08T11:12:52.306Z,20.27
2022-11-08T11:15:19.684Z,20.07
2022-11-08T11:17:47.767Z,20.77
2022-11-08T11:20:22.127Z,20.60
2022-11-08T11:22:49.882Z,20.97
2022-11-08T11:25:19.068Z,20.50
2022-11-08T11:27:53.772Z,21.33
2022-11-08T11:30:32.184Z,21.10
2022-11-08T11:33:03.190Z,21.20
2022-11-08T11:35:38.591Z,20.47
2022-11-08T11:38:11.824Z,21.57
2022-11-08T11:40:42.341Z,21.50
2022-11-08T11:43:13.133Z,21.00
2022-11-08T11:45:46.672Z,21.33
2022-11-08T11:48:18.160Z,21.00
2022-11-08T11:50:49.061Z,20.73
2022-11-08T11:53:19.781Z,20.50
2022-11-08T11:55:54.033Z,21.07
2022-11-08T11:58:49.260Z,21.37
2022-11-08T12:01:19.615Z,21.00
2022-11-08T12:04:04.105Z,21.17
2022-11-08T12:06:43.054Z,20.70
2022-11-08T12:09:19.146Z,20.80
2022-11-08T12:11:53.822Z,20.33
2022-11-08T12:14:42.508Z,21.10
2022-11-08T12:17:24.047Z,20.87
2022-11-08T12:20:10.673Z,20.63
2022-11-08T12:22:49.208Z,20.97
2022-11-08T12:25:21.369Z,20.43
2022-11-08T12:27:51.503Z,20.50
2022-11-08T12:30:20.405Z,21.10
2022-11-08T12:33:01.697Z,20.37
2022-11-08T12:35:35.461Z,20.30
2022-11-08T12:38:12.068Z,20.80
2022-11-08T12:40:47.190Z,20.23
2022-11-08T12:43:24.448Z,20.37
2022-11-08T12:45:58.230Z,20.07
2022-11-08T12:48:35.300Z,20.10
2022-11-08T12:51:08.472Z,20.60
2022-11-08T12:54:04.853Z,20.60
2022-11-08T12:56:37.345Z,21.43
2022-11-08T12:59:05.568Z,20.40
2022-11-08T13:01:33.010Z,20.87
2022-11-08T13:04:20.303Z,20.57
2022-11-08T13:06:52.410Z,20.43
2022-11-08T13:09:28.461Z,20.90
2022-11-08T13:12:02.804Z,20.90
2022-11-08T13:14:30.269Z,21.13
2022-11-08T13:17:22.802Z,20.87
2022-11-08T13:19:55.264Z,21.27
2022-11-08T13:22:45.255Z,20.83
2022-11-08T13:25:49.592Z,20.50
2022-11-08T13:28:37.768Z,20.80
2022-11-08T13:31:34.435Z,20.07
2022-11-08T13:34:29.726Z,20.07
2022-11-08T13:37:07.689Z,20.50
2022-11-08T13:40:10.419Z,20.10
2022-11-08T13:42:57.183Z,20.77
2022-11-08T13:45:32.322Z,21.17
2022-11-08T13:48:01.839Z,20.67
2022-11-08T13:50:50.736Z,20.60
2022-11-08T13:53:47.723Z,20.43
2022-11-08T13:56:24.732Z,20.27
2022-11-08T13:58:52.232Z,20.67
2022-11-08T14:01:52.229Z,20.63
2022-11-08T14:04:25.620Z,20.50
2022-11-08T14:07:00.662Z,21.20
2022-11-08T14:09:35.375Z,20.63
2022-11-08T14:12:07.240Z,20.53
2022-11-08T14:14:40.661Z,20.47
2022-11-08T14:17:21.219Z,20.70
2022-11-08T14:19:51.649Z,20.60
2022-11-08T14:22:22.308Z,20.17
2022-11-08T14:24:52.216Z,20.13
2022-11-08T14:27:35.071Z,20.50
2022-11-08T14:30:02.519Z,20.70
2022-11-08T14:32:29.977Z,20.43
2022-11-08T14:35:13.800Z,20.73
2022-11-08T14:37:43.140Z,21.50
2022-11-08T14:40:21.139Z,21.27
2022-11-08T14:42:49.180Z,20.97
2022-11-08T14:45:20.717Z,21.53
2022-11-08T14:47:53.387Z,21.03
2022-11-08T14:50:23.975Z,21.40
2022-11-08T14:52:51.469Z,21.10
2022-11-08T14:55:23.735Z,20.73
2022-11-08T14:57:51.083Z,21.17
2022-11-08T15:00:26.752Z,21.10
2022-11-08T15:02:56.769Z,21.50
2022-11-08T15:05:33.393Z,21.77
2022-11-08T15:08:01.700Z,21.63
2022-11-08T15:10:29.763Z,23.67
2022-11-08T15:12:57.597Z,22.00
2022-11-08T15:15:28.256Z,21.77
2022-11-08T15:18:15.477Z,21.83
2022-11-08T15:20:56.018Z,21.73
2022-11-08T15:23:25.202Z,21.33
2022-11-08T15:25:57.380Z,21.60
2022-11-08T15:28:26.870Z,21.03
2022-11-08T15:30:57.080Z,21.23
2022-11-08T15:33:26.145Z,21.50
2022-11-08T15:35:54.924Z,21.20
2022-11-08T15:38:29.020Z,22.53
2022-11-08T15:40:57.729Z,22.37
2022-11-08T15:43:37.117Z,22.27
2022-11-08T15:46:05.888Z,22.20
2022-11-08T15:48:33.823Z,22.90
2022-11-08T15:51:05.132Z,22.93
2022-11-08T15:53:32.520Z,22.90
2022-11-08T15:56:02.134Z,22.57
2022-11-08T15:58:31.635Z,22.60
2022-11-08T16:01:01.393Z,22.20
2022-11-08T16:03:29.033Z,22.80
2022-11-08T16:05:56.875Z,22.53
2022-11-08T16:08:26.385Z,22.37
2022-11-08T16:10:55.088Z,22.30
2022-11-08T16:13:24.993Z,21.87
2022-11-08T16:15:52.787Z,21.57
2022-11-08T16:18:20.990Z,21.40
2022-11-08T16:20:48.587Z,20.90
2022-11-08T16:23:16.184Z,20.57
2022-11-08T16:25:47.104Z,19.67
2022-11-08T16:28:19.090Z,20.10
2022-11-08T16:30:47.026Z,21.17
2022-11-08T16:33:19.726Z,20.43
2022-11-08T16:35:47.554Z,21.20
2022-11-08T16:38:15.681Z,20.73
2022-11-08T16:40:44.484Z,21.10
2022-11-08T16:43:12.451Z,21.20
2022-11-08T16:46:03.690Z,21.37
2022-11-08T16:48:28.054Z,19.43
2022-11-08T16:51:00.048Z,20.10
2022-11-08T16:53:29.188Z,21.60
2022-11-08T16:55:57.947Z,18.40
2022-11-08T16:58:25.385Z,18.53
2022-11-08T17:00:53.015Z,19.43
2022-11-08T17:03:22.528Z,18.30
2022-11-08T17:05:50.004Z,17.87
2022-11-08T17:08:17.811Z,18.77
2022-11-08T17:10:45.477Z,18.57
2022-11-08T17:13:15.174Z,17.97
2022-11-08T17:15:42.819Z,17.37
2022-11-08T17:18:11.831Z,18.10
2022-11-08T17:20:39.199Z,18.13
2022-11-08T17:23:06.905Z,18.07
2022-11-08T17:25:38.536Z,18.53
2022-11-08T17:28:06.187Z,18.40
2022-11-08T17:30:35.269Z,17.70
2022-11-08T17:33:05.460Z,18.27
2022-11-08T17:35:32.872Z,17.83
2022-11-08T17:38:00.227Z,17.87
2022-11-08T17:40:30.136Z,17.30
2022-11-08T17:42:57.598Z,18.00
2022-11-08T17:45:25.058Z,19.30
2022-11-08T17:47:53.923Z,17.60
2022-11-08T17:50:21.337Z,17.77
2022-11-08T17:52:48.906Z,18.17
2022-11-08T17:55:17.371Z,17.80
2022-11-08T17:57:44.821Z,17.43
2022-11-08T18:00:13.467Z,17.83
2022-11-08T18:02:40.944Z,16.93
2022-11-08T18:05:10.060Z,17.40
2022-11-08T18:07:38.387Z,17.40
2022-11-08T18:10:09.283Z,17.20
2022-11-08T18:12:36.900Z,17.70
2022-11-08T18:15:07.097Z,17.93
2022-11-08T18:17:35.112Z,18.03
2022-11-08T18:20:02.517Z,16.83
2022-11-08T18:22:31.213Z,17.63
2022-11-08T18:24:58.653Z,17.87
2022-11-08T18:27:26.217Z,17.93
2022-11-08T18:29:53.587Z,17.60
2022-11-08T18:32:20.938Z,18.40
2022-11-08T18:34:48.825Z,17.23
2022-11-08T18:37:16.212Z,17.20
2022-11-08T18:39:44.901Z,17.00
2022-11-08T18:42:12.272Z,17.47
2022-11-08T18:44:40.542Z,17.57
2022-11-08T18:47:07.979Z,18.60
2022-11-08T18:49:35.389Z,17.23
2022-11-08T18:52:02.717Z,16.47
2022-11-08T18:54:30.123Z,17.20
2022-11-08T18:56:58.892Z,16.70
2022-11-08T18:59:26.369Z,18.23
2022-11-08T19:01:53.805Z,17.17
2022-11-08T19:04:21.320Z,17.03
2022-11-08T19:06:54.188Z,17.10
2022-11-08T19:09:22.169Z,16.73
2022-11-08T19:11:49.555Z,15.97
2022-11-08T19:14:19.294Z,16.70
2022-11-08T19:16:46.728Z,16.50
2022-11-08T19:19:14.149Z,15.90
2022-11-08T19:21:43.473Z,16.03
2022-11-08T19:24:11.025Z,16.23
2022-11-08T19:26:39.338Z,16.67
2022-11-08T19:29:07.391Z,16.40
2022-11-08T19:31:36.487Z,16.03
2022-11-08T19:34:04.060Z,16.00
2022-11-08T19:36:32.181Z,16.33
2022-11-08T19:38:59.773Z,16.03
2022-11-08T19:41:28.587Z,16.90
2022-11-08T19:43:56.078Z,16.40
2022-11-08T19:46:26.037Z,16.60
2022-11-08T19:48:54.741Z,17.23
2022-11-08T19:51:23.932Z,17.00
2022-11-08T19:53:51.716Z,16.60
2022-11-08T19:56:29.176Z,16.33
2022-11-08T19:59:05.528Z,16.23
2022-11-08T20:01:36.155Z,16.17
2022-11-08T20:04:05.869Z,16.17
2022-11-08T20:06:33.801Z,15.53
2022-11-08T20:09:02.216Z,16.10
2022-11-08T20:11:31.100Z,15.90
2022-11-08T20:14:00.070Z,16.30
2022-11-08T20:16:29.055Z,16.60
2022-11-08T20:18:59.080Z,16.13
2022-11-08T20:21:29.053Z,17.30
2022-11-08T20:23:56.475Z,16.70
2022-11-08T20:26:25.606Z,17.13
2022-11-08T20:28:57.180Z,17.33
2022-11-08T20:31:25.899Z,16.73
2022-11-08T20:33:54.061Z,16.33
2022-11-08T20:36:23.149Z,16.40
2022-11-08T20:38:55.492Z,15.93
2022-11-08T20:41:23.000Z,15.80
2022-11-08T20:43:50.416Z,16.27
2022-11-08T20:46:19.359Z,16.50
2022-11-08T20:48:51.579Z,16.60
2022-11-08T20:51:20.820Z,16.37
2022-11-08T20:53:49.212Z,16.30
2022-11-08T20:56:19.398Z,16.43
2022-11-08T20:58:48.039Z,16.47
2022-11-08T21:01:16.964Z,15.73
2022-11-08T21:03:47.960Z,15.70
2022-11-08T21:06:16.985Z,15.77
2022-11-08T21:09:05.774Z,15.90
2022-11-08T21:11:34.406Z,15.30
2022-11-08T21:14:02.140Z,15.80
2022-11-08T21:16:33.118Z,16.10
2022-11-08T21:19:02.741Z,15.93
2022-11-08T21:21:30.779Z,16.50
2022-11-08T21:23:58.348Z,15.90
2022-11-08T21:26:25.922Z,15.73
2022-11-08T21:28:56.170Z,15.93
2022-11-08T21:31:23.837Z,15.50
2022-11-08T21:33:51.200Z,16.07
2022-11-08T21:36:18.668Z,16.23
2022-11-08T21:38:46.233Z,16.53
2022-11-08T21:41:13.872Z,16.10
2022-11-08T21:43:43.519Z,16.20
2022-11-08T21:46:17.927Z,15.43
2022-11-08T21:48:45.851Z,15.93
2022-11-08T21:51:13.214Z,15.37
2022-11-08T21:53:52.462Z,15.90
2022-11-08T21:56:22.020Z,15.17
2022-11-08T21:58:49.391Z,15.60
2022-11-08T22:01:18.437Z,15.30
2022-11-08T22:03:46.765Z,15.33
2022-11-08T22:06:14.403Z,15.67
2022-11-08T22:08:41.747Z,14.90
2022-11-08T22:11:09.092Z,14.97
2022-11-08T22:13:36.655Z,15.17
2022-11-08T22:16:04.177Z,15.50
2022-11-08T22:21:37.850Z,15.20
2022-11-08T22:24:05.448Z,14.90
2022-11-08T22:26:32.855Z,15.63
2022-11-08T22:29:00.391Z,14.80
2022-11-08T22:31:27.908Z,15.37
2022-11-08T22:33:56.679Z,15.53
2022-11-08T22:36:24.013Z,14.90
2022-11-08T22:38:51.452Z,15.60
2022-11-08T22:41:20.455Z,14.53
2022-11-08T22:43:48.386Z,15.60
2022-11-08T22:46:16.932Z,15.43
2022-11-08T22:48:44.450Z,15.80
2022-11-08T22:51:13.365Z,15.60
2022-11-08T22:53:43.389Z,15.63
2022-11-08T22:56:11.861Z,15.60
2022-11-08T22:58:39.803Z,14.67
2022-11-08T23:01:07.625Z,15.13
2022-11-08T23:03:35.004Z,14.83
2022-11-08T23:06:02.359Z,15.13
2022-11-08T23:08:31.196Z,15.33
2022-11-08T23:11:17.433Z,14.93
2022-11-08T23:14:02.821Z,15.23
2022-11-08T23:16:35.001Z,15.50
2022-11-08T23:19:22.633Z,15.33
2022-11-08T23:22:08.165Z,14.37
2022-11-08T23:24:37.013Z,14.93
2022-11-08T23:27:24.573Z,14.90
2022-11-08T23:30:10.295Z,14.60
2022-11-08T23:32:42.519Z,14.47
2022-11-08T23:35:09.975Z,14.70
2022-11-08T23:37:37.359Z,15.47
2022-11-08T23:40:25.067Z,15.10
2022-11-08T23:43:21.273Z,14.43
2022-11-08T23:45:48.935Z,14.63
2022-11-08T23:48:16.289Z,14.80
2022-11-08T23:50:48.585Z,14.30
2022-11-08T23:53:16.260Z,14.27
2022-11-08T23:55:45.463Z,14.10
2022-11-08T23:58:13.580Z,14.70
